Time;durP1;ratioP1;P1;durP2;ratioP2;P2;SDS_P1;SDS_P2;PMS_P1;PMS_P2;Temp;Humidity;BMP_temperature;BMP_pressure;BME280_temperature;BME280_humidity;BME280_pressure;Samples;Min_cycle;Max_cycle;Signal;HPM_P1;HPM_P2
2020/12/08 00:05:26;;;;;;;2.70;2.47;;;;;;;1.15;79.38;98768.31;4672682;30;20068;-79
2020/12/08 00:19:15;;;;;;;2.85;2.60;;;;;;;0.87;79.07;98759.25;4712471;30;20049;-77
2020/12/08 00:21:59;;;;;;;1.23;0.98;;;;;;;0.97;79.44;98766.69;4746446;29;20193;-77
2020/12/08 00:24:25;;;;;;;2.90;2.70;;;;;;;0.98;79.37;98768.31;4799959;29;20066;-75
2020/12/08 00:26:53;;;;;;;3.47;3.13;;;;;;;0.87;78.77;98761.94;4800645;29;20067;-74
2020/12/08 00:29:19;;;;;;;1.25;1.08;;;;;;;0.82;79.60;98760.00;4823550;29;20040;-74
2020/12/08 00:31:44;;;;;;;1.23;1.17;;;;;;;0.84;79.31;98763.25;4882631;29;20390;-75
2020/12/08 00:34:13;;;;;;;1.50;1.40;;;;;;;0.89;79.63;98764.41;4936625;29;20047;-77
2020/12/08 00:36:38;;;;;;;2.30;2.20;;;;;;;0.94;78.91;98772.56;4917088;29;20032;-76
2020/12/08 00:39:03;;;;;;;2.35;2.13;;;;;;;0.82;79.69;98753.81;4913750;29;20044;-74
2020/12/08 00:41:29;;;;;;;2.50;2.40;;;;;;;0.80;79.71;98756.72;4916748;29;20119;-78
2020/12/08 00:43:54;;;;;;;3.05;2.85;;;;;;;0.79;80.10;98760.47;4897721;29;20064;-75
2020/12/08 00:46:20;;;;;;;0.98;0.98;;;;;;;0.75;79.51;98759.31;4903336;29;20032;-75
2020/12/08 00:48:46;;;;;;;2.38;2.28;;;;;;;0.76;79.33;98760.97;4914222;29;20044;-73
2020/12/08 00:51:12;;;;;;;0.95;0.95;;;;;;;0.83;80.03;98777.78;4920911;29;20036;-73
2020/12/08 00:53:38;;;;;;;0.95;0.95;;;;;;;0.87;79.34;98784.28;4920092;29;20046;-74
2020/12/08 00:56:11;;;;;;;1.70;1.60;;;;;;;0.87;79.98;98788.88;4910563;29;20042;-74
2020/12/08 00:58:37;;;;;;;1.83;1.73;;;;;;;0.78;79.22;98780.38;4919474;29;20054;-75
2020/12/08 01:01:12;;;;;;;1.55;1.45;;;;;;;0.77;79.99;98778.72;4920053;29;20455;-76
2020/12/08 01:03:38;;;;;;;2.20;2.03;;;;;;;0.90;79.45;98792.94;4915034;29;20467;-75
2020/12/08 01:06:07;;;;;;;1.30;1.20;;;;;;;0.78;79.45;98777.69;4920840;29;20028;-76
2020/12/08 01:08:33;;;;;;;1.00;1.00;;;;;;;0.84;79.08;98773.19;4907085;29;20028;-75
2020/12/08 01:11:00;;;;;;;2.20;2.10;;;;;;;0.83;79.75;98787.72;4916004;29;20076;-76
2020/12/08 01:13:26;;;;;;;2.17;2.08;;;;;;;0.78;79.06;98785.75;4916734;29;20032;-75
2020/12/08 01:15:52;;;;;;;2.40;2.30;;;;;;;0.67;79.44;98771.31;4918424;29;20698;-75
2020/12/08 01:18:17;;;;;;;1.80;1.70;;;;;;;0.69;78.38;98797.97;4907150;29;20134;-75
2020/12/08 01:20:53;;;;;;;2.70;2.60;;;;;;;0.56;78.96;98776.75;4910028;29;20040;-76
2020/12/08 01:23:21;;;;;;;2.10;2.00;;;;;;;0.45;78.60;98776.56;4922159;29;20099;-75
2020/12/08 01:25:46;;;;;;;2.35;1.25;;;;;;;0.44;79.67;98792.91;4921021;29;20070;-75
2020/12/08 01:28:12;;;;;;;0.90;0.80;;;;;;;0.51;78.97;98797.09;4910921;29;20052;-75
2020/12/08 01:30:37;;;;;;;0.82;0.82;;;;;;;0.62;79.85;98808.06;4920579;29;20545;-76
2020/12/08 01:33:03;;;;;;;1.98;1.88;;;;;;;0.58;79.35;98791.56;4921410;29;20596;-74
2020/12/08 01:35:31;;;;;;;2.15;2.05;;;;;;;0.60;79.27;98810.16;4910677;29;20029;-76
2020/12/08 01:37:59;;;;;;;1.60;1.50;;;;;;;0.44;79.55;98791.06;4916007;29;20115;-76
2020/12/08 01:40:24;;;;;;;0.80;0.80;;;;;;;0.41;79.49;98801.47;4882330;29;20040;-75
2020/12/08 01:42:49;;;;;;;2.88;2.67;;;;;;;0.50;79.38;98814.28;4910641;29;20035;-75
2020/12/08 01:45:15;;;;;;;2.13;2.03;;;;;;;0.35;79.52;98805.91;4901589;29;20042;-76
2020/12/08 01:47:41;;;;;;;3.05;2.85;;;;;;;0.41;80.08;98818.44;4898478;29;20103;-75
2020/12/08 01:50:12;;;;;;;3.15;2.95;;;;;;;0.37;79.61;98821.84;4900696;29;20032;-76
2020/12/08 01:52:38;;;;;;;2.75;2.55;;;;;;;0.24;79.38;98822.91;4906225;29;20028;-75
2020/12/08 01:55:04;;;;;;;1.08;0.98;;;;;;;0.26;80.15;98818.09;4896885;29;20427;-77
2020/12/08 01:57:32;;;;;;;5.13;1.90;;;;;;;0.29;79.71;98814.94;4920562;29;20066;-75
2020/12/08 02:00:02;;;;;;;2.10;2.00;;;;;;;0.27;80.43;98812.50;4918338;29;20027;-74
2020/12/08 02:02:30;;;;;;;1.42;1.35;;;;;;;0.26;79.76;98810.84;4897329;29;20039;-75
2020/12/08 02:04:59;;;;;;;2.55;2.45;;;;;;;0.28;80.22;98824.09;4919894;29;20040;-74
2020/12/08 02:07:24;;;;;;;1.38;1.27;;;;;;;0.17;80.15;98804.22;4912553;29;20028;-74
2020/12/08 02:09:51;;;;;;;0.60;0.60;;;;;;;0.31;80.64;98823.59;4921327;29;20097;-75
2020/12/08 02:12:17;;;;;;;0.73;0.73;;;;;;;0.34;79.81;98821.25;4918082;29;20038;-75
2020/12/08 02:14:45;;;;;;;0.20;0.20;;;;;;;0.40;79.87;98819.47;4901012;29;20432;-76
2020/12/08 02:17:10;;;;;;;0.40;0.40;;;;;;;0.29;79.80;98807.72;4920191;29;20035;-75
2020/12/08 02:19:36;;;;;;;0.55;0.55;;;;;;;0.39;79.32;98811.66;4897955;29;20082;-75
2020/12/08 02:22:01;;;;;;;0.43;0.30;;;;;;;0.45;79.84;98830.34;4909497;29;20028;-74
2020/12/08 02:24:29;;;;;;;1.40;1.30;;;;;;;0.43;80.31;98827.06;4913515;29;20024;-76
2020/12/08 02:26:57;;;;;;;2.85;2.33;;;;;;;0.33;79.10;98821.47;4910800;29;20028;-76
2020/12/08 02:29:22;;;;;;;0.93;0.93;;;;;;;0.35;79.04;98830.13;4902664;29;20043;-76
2020/12/08 02:31:50;;;;;;;0.60;0.60;;;;;;;0.27;79.73;98819.75;4907820;29;20048;-76
2020/12/08 02:34:15;;;;;;;1.02;1.02;;;;;;;0.36;80.20;98825.56;4905500;29;20043;-75
2020/12/08 02:36:41;;;;;;;1.52;1.50;;;;;;;0.31;79.11;98828.97;4918215;29;20024;-75
2020/12/08 02:39:06;;;;;;;0.63;0.63;;;;;;;0.24;79.82;98821.03;4900668;29;20115;-75
2020/12/08 02:41:32;;;;;;;0.85;0.20;;;;;;;0.20;79.67;98806.44;4887082;29;20115;-76
2020/12/08 02:43:57;;;;;;;0.30;0.30;;;;;;;0.26;80.47;98810.03;4898449;29;20518;-75
2020/12/08 02:46:22;;;;;;;1.17;1.13;;;;;;;0.31;80.30;98812.84;4901821;29;20135;-74
2020/12/08 02:48:48;;;;;;;1.55;1.45;;;;;;;0.27;79.38;98817.88;4913480;29;20111;-74
2020/12/08 02:51:18;;;;;;;1.80;1.70;;;;;;;0.28;79.58;98840.22;4906267;29;20036;-73
2020/12/08 02:53:44;;;;;;;3.17;2.90;;;;;;;0.13;79.39;98833.47;4884382;29;20387;-73
2020/12/08 02:56:10;;;;;;;2.42;2.22;;;;;;;0.10;80.31;98827.72;4893353;29;20121;-72
2020/12/08 02:58:38;;;;;;;3.10;2.80;;;;;;;0.10;80.13;98827.72;4900731;29;20121;-74
2020/12/08 03:01:05;;;;;;;1.00;1.00;;;;;;;0.07;80.59;98834.38;4914647;29;20077;-74
2020/12/08 03:03:30;;;;;;;0.80;0.80;;;;;;;0.10;80.84;98828.56;4918540;29;20079;-74
2020/12/08 03:05:56;;;;;;;1.25;1.17;;;;;;;0.09;80.51;98826.91;4894609;29;20147;-74
2020/12/08 03:08:21;;;;;;;1.42;1.33;;;;;;;0.10;79.81;98831.25;4898548;29;20024;-73
2020/12/08 03:10:47;;;;;;;1.20;1.20;;;;;;;0.02;80.32;98826.22;4903641;29;20063;-75
2020/12/08 03:13:13;;;;;;;0.68;0.68;;;;;;;-0.02;79.92;98830.44;4915982;23;20418;-79
2020/12/08 03:15:38;;;;;;;0.57;0.55;;;;;;;-0.04;80.69;98816.44;4919174;29;20044;-74
2020/12/08 03:18:03;;;;;;;0.60;0.60;;;;;;;0.13;80.55;98838.84;4908086;29;20482;-77
2020/12/08 03:20:29;;;;;;;0.80;0.80;;;;;;;0.11;80.24;98834.75;4884970;29;20032;-75
2020/12/08 03:22:54;;;;;;;1.00;1.00;;;;;;;0.19;80.25;98849.69;4916638;29;20058;-76
2020/12/08 03:25:22;;;;;;;2.38;2.28;;;;;;;0.10;79.90;98850.06;4918813;29;20032;-76
2020/12/08 03:27:48;;;;;;;2.10;2.00;;;;;;;0.03;80.14;98846.69;4883166;29;20028;-75
2020/12/08 03:30:13;;;;;;;2.47;2.38;;;;;;;-0.04;80.66;98843.31;4917185;29;20032;-76
2020/12/08 03:32:39;;;;;;;2.15;2.05;;;;;;;-0.01;80.59;98853.56;4890294;29;20092;-75
2020/12/08 03:35:04;;;;;;;1.58;1.48;;;;;;;-0.01;80.42;98853.56;4912488;29;20468;-75
2020/12/08 03:37:30;;;;;;;0.55;0.55;;;;;;;0.02;80.61;98836.97;4905546;29;20033;-75
2020/12/08 03:39:55;;;;;;;0.40;0.38;;;;;;;0.00;80.16;98833.72;4893445;29;20080;-75
2020/12/08 03:42:21;;;;;;;2.53;2.38;;;;;;;0.15;80.50;98858.22;4900496;29;20423;-75
2020/12/08 03:44:48;;;;;;;3.05;2.85;;;;;;;0.08;80.30;98846.78;4918777;29;20513;-75
2020/12/08 03:47:16;;;;;;;3.30;3.10;;;;;;;0.04;79.87;98845.63;4904115;29;20029;-75
2020/12/08 03:49:41;;;;;;;1.77;1.55;;;;;;;0.01;80.90;98847.97;4882299;29;20032;-76
2020/12/08 03:52:07;;;;;;;0.80;0.80;;;;;;;0.07;80.72;98855.88;4906847;29;20034;-76
2020/12/08 03:54:32;;;;;;;3.38;3.08;;;;;;;0.05;80.83;98847.25;4899113;29;20050;-75
2020/12/08 03:56:58;;;;;;;1.80;1.70;;;;;;;0.09;80.30;98839.53;4889295;29;20071;-75
2020/12/08 03:59:24;;;;;;;2.63;2.42;;;;;;;0.06;80.41;98830.09;4908237;29;20142;-76
2020/12/08 04:01:50;;;;;;;2.45;2.33;;;;;;;-0.02;80.01;98830.44;4910079;29;20386;-75
2020/12/08 04:04:16;;;;;;;1.17;1.13;;;;;;;-0.04;79.97;98832.56;4879615;29;20029;-76
2020/12/08 04:06:42;;;;;;;0.75;0.75;;;;;;;-0.03;80.31;98839.53;4901786;29;20479;-73
2020/12/08 04:09:16;;;;;;;2.10;0.68;;;;;;;0.11;80.68;98857.06;4897567;29;20032;-75
2020/12/08 04:11:41;;;;;;;0.20;0.20;;;;;;;0.12;79.52;98849.84;4896412;29;20027;-76
2020/12/08 04:14:07;;;;;;;1.30;1.20;;;;;;;0.22;80.37;98873.41;4916048;29;20055;-75
2020/12/08 04:16:33;;;;;;;1.40;1.20;;;;;;;0.17;79.94;98845.34;4894188;29;20084;-77
2020/12/08 04:19:00;;;;;;;1.23;1.13;;;;;;;0.23;79.55;98848.16;4898469;29;20087;-76
2020/12/08 04:21:27;;;;;;;1.08;1.08;;;;;;;0.26;80.26;98858.44;4907204;29;20024;-75
2020/12/08 04:24:02;;;;;;;0.75;0.68;;;;;;;0.27;79.76;98857.41;4916435;29;20110;-76
2020/12/08 04:26:37;;;;;;;0.08;0.08;;;;;;;0.36;79.91;98864.03;4897936;29;20101;-75
2020/12/08 04:29:02;;;;;;;0.30;0.30;;;;;;;0.36;79.59;98858.66;4917913;29;20043;-74
2020/12/08 04:31:28;;;;;;;0.40;0.40;;;;;;;0.50;79.57;98869.97;4878015;29;20259;-75
2020/12/08 04:33:54;;;;;;;0.50;0.50;;;;;;;0.51;79.72;98860.81;4914501;29;20103;-74
2020/12/08 04:36:22;;;;;;;0.98;0.57;;;;;;;0.52;79.68;98878.59;4902463;29;20467;-75
2020/12/08 04:38:48;;;;;;;1.30;1.13;;;;;;;0.44;79.61;98860.97;4911674;29;20466;-74
2020/12/08 04:41:24;;;;;;;0.47;0.47;;;;;;;0.46;79.54;98869.63;4916170;29;20036;-74
2020/12/08 04:43:51;;;;;;;0.50;0.50;;;;;;;0.56;79.57;98881.66;4889464;29;20043;-74
2020/12/08 04:46:19;;;;;;;0.32;0.32;;;;;;;0.61;79.45;98874.47;4915898;29;20043;-75
2020/12/08 04:48:45;;;;;;;1.00;1.00;;;;;;;0.65;78.94;98883.72;4914063;29;20024;-74
2020/12/08 04:51:10;;;;;;;0.35;0.35;;;;;;;0.67;78.81;98876.25;4910960;29;20095;-73
2020/12/08 04:53:39;;;;;;;0.13;0.13;;;;;;;0.66;78.97;98868.41;4906506;29;20020;-75
2020/12/08 04:56:04;;;;;;;0.77;0.77;;;;;;;0.70;79.26;98874.91;4908832;29;20039;-74
2020/12/08 04:58:31;;;;;;;0.90;0.90;;;;;;;0.76;78.87;98890.13;4887433;29;20028;-73
2020/12/08 05:00:56;;;;;;;0.30;0.30;;;;;;;0.81;79.53;98890.22;4887143;29;20051;-74
2020/12/08 05:03:25;;;;;;;0.85;0.85;;;;;;;0.76;78.94;98874.00;4901113;29;20028;-74
2020/12/08 05:05:51;;;;;;;2.00;1.90;;;;;;;0.76;79.00;98882.06;4914546;29;20024;-74
2020/12/08 05:08:22;;;;;;;3.20;3.00;;;;;;;0.69;78.30;98884.88;4906867;29;21268;-74
2020/12/08 05:10:48;;;;;;;4.15;3.75;;;;;;;0.57;78.13;98886.78;4910414;29;20025;-74
2020/12/08 05:13:27;;;;;;;3.67;3.38;;;;;;;0.44;78.29;98890.56;4912752;29;20099;-75
2020/12/08 05:16:02;;;;;;;2.38;2.22;;;;;;;0.34;78.35;98903.81;4909262;29;20039;-74
2020/12/08 05:18:28;;;;;;;2.08;1.98;;;;;;;0.23;78.48;98904.63;4897966;29;20024;-73
2020/12/08 05:20:54;;;;;;;1.50;1.40;;;;;;;0.15;78.63;98905.81;4886980;29;20109;-74
2020/12/08 05:23:19;;;;;;;2.47;2.38;;;;;;;0.01;78.46;98899.84;4902471;29;20068;-76
2020/12/08 05:25:45;;;;;;;3.95;3.75;;;;;;;-0.11;78.11;98902.53;4880775;29;20032;-75
2020/12/08 05:28:17;;;;;;;2.60;2.45;;;;;;;-0.25;78.72;98912.69;4910916;29;20035;-74
2020/12/08 05:30:46;;;;;;;1.52;1.45;;;;;;;-0.34;78.40;98919.44;4904835;29;20036;-74
2020/12/08 05:33:17;;;;;;;0.93;0.93;;;;;;;-0.42;79.02;98917.94;4910866;29;20016;-73
2020/12/08 05:35:46;;;;;;;0.98;0.98;;;;;;;-0.49;78.77;98925.25;4895026;29;20032;-74
2020/12/08 05:38:15;;;;;;;1.98;1.52;;;;;;;-0.55;79.13;98929.69;4905363;29;20103;-75
2020/12/08 05:40:44;;;;;;;1.65;1.55;;;;;;;-0.62;79.07;98928.16;4910782;29;20092;-75
2020/12/08 05:43:09;;;;;;;1.90;1.80;;;;;;;-0.70;78.92;98926.63;4876974;29;20124;-75
2020/12/08 05:45:36;;;;;;;0.82;0.82;;;;;;;-0.72;79.77;98929.50;4908043;29;20052;-75
2020/12/08 05:48:02;;;;;;;0.63;0.63;;;;;;;-0.74;79.73;98923.56;4905302;29;20040;-74
2020/12/08 05:50:27;;;;;;;0.60;0.60;;;;;;;-0.75;79.48;98923.78;4902323;29;20036;-75
2020/12/08 05:52:58;;;;;;;1.00;1.00;;;;;;;-0.80;79.40;98924.47;4898308;29;20040;-74
2020/12/08 05:55:28;;;;;;;0.60;0.60;;;;;;;-0.85;79.30;98918.16;4891601;29;20108;-75
2020/12/08 05:58:04;;;;;;;0.63;0.63;;;;;;;-0.81;79.30;98928.22;4898854;29;20033;-74
2020/12/08 06:00:31;;;;;;;3.88;3.00;;;;;;;-0.85;79.66;98928.91;4896269;29;20023;-75
2020/12/08 06:03:17;;;;;;;2.95;2.75;;;;;;;-0.90;79.73;98932.28;4901700;29;20510;-74
2020/12/08 06:05:47;;;;;;;3.20;2.90;;;;;;;-0.94;80.08;98933.75;4887222;29;20208;-73
2020/12/08 06:08:16;;;;;;;4.15;3.85;;;;;;;-0.98;80.16;98946.84;4896506;29;20040;-74
2020/12/08 06:10:52;;;;;;;3.85;3.55;;;;;;;-1.01;80.15;98943.75;4899243;29;20028;-76
2020/12/08 06:13:29;;;;;;;4.57;4.25;;;;;;;-1.10;80.52;98940.56;4895169;28;20049;-74
2020/12/08 06:15:56;;;;;;;3.65;3.30;;;;;;;-1.05;80.35;98951.47;4897576;29;20051;-72
2020/12/08 06:18:32;;;;;;;2.65;2.13;;;;;;;-1.07;80.33;98958.91;4887958;29;20387;-73
2020/12/08 06:21:00;;;;;;;1.65;1.48;;;;;;;-1.10;80.25;98954.00;4893513;29;20028;-74
2020/12/08 06:23:25;;;;;;;1.63;1.52;;;;;;;-1.11;80.43;98957.72;4892421;29;20475;-75
2020/12/08 06:26:02;;;;;;;1.75;1.15;;;;;;;-1.17;79.89;98951.38;4882184;29;20048;-75
2020/12/08 06:28:28;;;;;;;0.40;0.40;;;;;;;-1.24;80.07;98948.78;4895867;29;20028;-74
2020/12/08 06:31:06;;;;;;;0.75;0.75;;;;;;;-1.20;80.40;98957.19;4891785;29;20051;-76
2020/12/08 06:33:51;;;;;;;0.60;0.60;;;;;;;-1.27;80.18;98954.59;4906496;29;20029;-75
2020/12/08 06:36:22;;;;;;;0.30;0.30;;;;;;;-1.25;79.79;98959.75;4878563;29;20032;-75
2020/12/08 06:39:07;;;;;;;0.28;0.28;;;;;;;-1.30;80.08;98957.75;4897558;29;20044;-75
2020/12/08 06:41:37;;;;;;;0.50;0.50;;;;;;;-1.33;79.72;98949.31;4881428;29;20025;-75
2020/12/08 06:44:15;;;;;;;0.20;0.20;;;;;;;-1.41;79.62;98953.13;4862506;29;20032;-75
2020/12/08 06:46:55;;;;;;;0.20;0.20;;;;;;;-1.32;80.22;98967.06;4881162;29;20028;-76
2020/12/08 06:49:21;;;;;;;1.85;1.13;;;;;;;-1.41;80.22;98974.56;4879799;29;21897;-74
2020/12/08 06:51:54;;;;;;;1.20;0.40;;;;;;;-1.43;80.44;98965.91;4894193;29;20033;-75
2020/12/08 06:54:20;;;;;;;1.60;1.05;;;;;;;-1.39;80.39;98964.44;4889942;29;20016;-75
2020/12/08 06:56:45;;;;;;;0.52;0.52;;;;;;;-1.37;80.46;98959.69;4887028;29;20039;-75
2020/12/08 06:59:23;;;;;;;0.40;0.40;;;;;;;-1.22;80.49;98975.38;4890301;29;20036;-75
2020/12/08 07:01:56;;;;;;;0.25;0.20;;;;;;;-1.16;80.77;98960.25;4891989;29;20036;-74
2020/12/08 07:04:24;;;;;;;1.20;1.13;;;;;;;-0.98;80.35;98973.66;4893590;29;20099;-74
2020/12/08 07:06:50;;;;;;;4.35;3.95;;;;;;;-0.88;81.00;98968.56;4893362;29;20024;-74
2020/12/08 07:09:16;;;;;;;5.90;5.30;;;;;;;-0.84;80.95;98957.38;4895992;29;20037;-75
2020/12/08 07:11:42;;;;;;;7.20;6.57;;;;;;;-0.69;81.11;98971.19;4867425;29;20088;-75
2020/12/08 07:14:08;;;;;;;8.43;6.63;;;;;;;-0.74;80.68;98974.56;4894989;29;20112;-76
2020/12/08 07:16:34;;;;;;;8.48;5.53;;;;;;;-0.79;81.29;98976.28;4884498;29;20471;-76
2020/12/08 07:19:05;;;;;;;10.70;6.35;;;;;;;-0.69;81.34;99000.72;4876538;29;20039;-75
2020/12/08 07:21:31;;;;;;;6.60;5.65;;;;;;;-0.73;81.14;98989.63;4887919;29;20451;-74
2020/12/08 07:23:56;;;;;;;11.23;6.63;;;;;;;-0.79;81.53;98981.66;4889738;29;20108;-75
2020/12/08 07:26:31;;;;;;;11.00;8.43;;;;;;;-0.71;82.25;98992.09;4880223;29;20044;-74
2020/12/08 07:28:58;;;;;;;11.93;9.73;;;;;;;-0.64;82.51;98992.00;4890941;29;20555;-74
2020/12/08 07:31:45;;;;;;;11.20;8.57;;;;;;;-0.56;82.68;98981.75;4903035;29;20043;-76
2020/12/08 07:34:14;;;;;;;10.57;9.27;;;;;;;-0.49;82.47;98983.53;4897160;29;20045;-75
2020/12/08 07:36:39;;;;;;;11.35;8.18;;;;;;;-0.43;82.32;98986.13;4880489;29;20039;-74
2020/12/08 07:39:16;;;;;;;6.05;5.50;;;;;;;-0.40;81.52;99000.97;4884053;29;20035;-77
2020/12/08 07:41:41;;;;;;;16.27;9.07;;;;;;;-0.47;81.68;99019.84;4892362;29;20109;-77
2020/12/08 07:44:14;;;;;;;11.85;8.13;;;;;;;-0.52;81.98;99017.03;4891131;29;20037;-73
2020/12/08 07:46:48;;;;;;;13.73;9.50;;;;;;;-0.58;82.53;99016.06;4896865;29;20068;-75
2020/12/08 07:49:14;;;;;;;12.95;9.43;;;;;;;-0.59;83.01;99013.63;4874823;29;20062;-74
2020/12/08 07:51:40;;;;;;;11.90;8.40;;;;;;;-0.62;83.01;99017.56;4896679;29;20471;-76
2020/12/08 07:54:07;;;;;;;13.20;8.45;;;;;;;-0.65;82.99;99011.84;4903529;29;20116;-75
2020/12/08 07:56:35;;;;;;;7.50;6.75;;;;;;;-0.58;82.37;99029.50;4862774;29;20043;-72
2020/12/08 07:59:02;;;;;;;4.70;4.32;;;;;;;-0.66;82.44;99019.06;4891296;29;20029;-75
2020/12/08 08:01:37;;;;;;;4.22;3.92;;;;;;;-0.68;82.71;99007.75;4892412;29;20036;-75
2020/12/08 08:04:02;;;;;;;2.80;2.58;;;;;;;-0.66;82.61;99021.75;4894979;29;20029;-76
2020/12/08 08:06:28;;;;;;;2.45;2.35;;;;;;;-0.66;82.25;99013.69;4894186;29;20124;-76
2020/12/08 08:08:54;;;;;;;4.20;3.95;;;;;;;-0.58;82.04;99045.63;4889919;29;20142;-74
2020/12/08 08:11:21;;;;;;;6.82;6.22;;;;;;;-0.64;82.75;99033.09;4882896;29;20043;-76
2020/12/08 08:13:49;;;;;;;6.22;5.53;;;;;;;-0.54;82.76;99049.50;4876150;29;20124;-73
2020/12/08 08:16:18;;;;;;;8.25;6.70;;;;;;;-0.57;82.33;99044.56;4879461;29;20040;-74
2020/12/08 08:18:44;;;;;;;6.60;6.00;;;;;;;-0.48;83.03;99053.13;4885130;29;20440;-75
2020/12/08 08:21:12;;;;;;;3.60;3.30;;;;;;;-0.52;82.58;99046.56;4879571;29;20040;-75
2020/12/08 08:23:37;;;;;;;4.13;3.75;;;;;;;-0.39;82.82;99067.06;4878800;29;20032;-75
2020/12/08 08:26:05;;;;;;;2.88;2.67;;;;;;;-0.32;82.28;99078.53;4893872;29;20029;-70
2020/12/08 08:28:31;;;;;;;3.70;3.40;;;;;;;-0.31;82.24;99068.59;4891944;29;20053;-76
2020/12/08 08:31:14;;;;;;;6.10;4.47;;;;;;;-0.23;82.81;99074.47;4900437;29;20028;-74
2020/12/08 08:33:39;;;;;;;5.80;5.30;;;;;;;-0.14;82.34;99074.16;4892270;29;20021;-74
2020/12/08 08:36:05;;;;;;;10.95;7.53;;;;;;;-0.12;82.93;99066.69;4890628;29;20036;-72
2020/12/08 08:38:30;;;;;;;11.10;7.88;;;;;;;-0.15;82.31;99072.53;4883855;29;20048;-73
2020/12/08 08:40:58;;;;;;;11.15;7.32;;;;;;;-0.11;82.56;99073.72;4892615;29;20032;-74
2020/12/08 08:43:32;;;;;;;6.65;6.03;;;;;;;-0.02;83.15;99078.50;4893154;29;20039;-74
2020/12/08 08:45:58;;;;;;;13.90;8.57;;;;;;;0.00;82.44;99081.00;4899853;29;20444;-73
2020/12/08 08:48:23;;;;;;;6.53;5.93;;;;;;;-0.01;83.16;99076.66;4898261;29;20040;-74
2020/12/08 08:50:49;;;;;;;7.72;6.80;;;;;;;0.09;82.08;99090.34;4885014;29;20033;-74
2020/12/08 08:53:15;;;;;;;9.00;7.78;;;;;;;0.14;83.06;99093.16;4895862;29;20395;-74
2020/12/08 08:55:41;;;;;;;11.20;6.20;;;;;;;0.16;82.54;99079.47;4878960;29;20356;-75
2020/12/08 08:58:09;;;;;;;4.60;3.40;;;;;;;0.30;82.43;99090.88;4894555;29;20121;-75
2020/12/08 09:00:34;;;;;;;3.35;3.15;;;;;;;0.37;82.75;99091.56;4893004;29;20098;-74
2020/12/08 09:03:00;;;;;;;9.63;4.20;;;;;;;0.41;82.35;99092.75;4899066;29;20052;-72
2020/12/08 09:05:28;;;;;;;6.63;6.03;;;;;;;0.48;82.37;99093.47;4880671;29;20054;-72
2020/12/08 09:07:56;;;;;;;11.68;6.95;;;;;;;0.52;82.14;99083.84;4884148;29;20043;-72
2020/12/08 09:10:21;;;;;;;7.78;6.53;;;;;;;0.64;82.06;99093.81;4865960;29;20041;-73
2020/12/08 09:12:47;;;;;;;17.73;10.40;;;;;;;0.66;81.62;99091.72;4892413;29;20036;-72
2020/12/08 09:15:12;;;;;;;8.77;7.88;;;;;;;0.73;82.25;99099.66;4909108;29;20025;-74
2020/12/08 09:17:38;;;;;;;15.90;9.55;;;;;;;0.80;82.12;99100.38;4908182;29;20063;-73
2020/12/08 09:20:06;;;;;;;11.48;8.60;;;;;;;0.86;82.37;99094.88;4920333;29;20024;-73
2020/12/08 09:22:34;;;;;;;11.40;9.55;;;;;;;0.95;82.00;99094.50;4906993;29;20028;-72
2020/12/08 09:25:00;;;;;;;10.77;9.05;;;;;;;1.05;81.77;99097.41;4902237;29;20079;-72
2020/12/08 09:27:25;;;;;;;13.77;9.38;;;;;;;1.21;81.92;99101.25;4908917;29;20092;-72
2020/12/08 09:29:51;;;;;;;11.07;8.50;;;;;;;1.36;82.24;99101.59;4904139;29;20047;-72
2020/12/08 09:32:17;;;;;;;11.70;8.23;;;;;;;1.85;82.52;99101.19;4885670;29;20127;-72
2020/12/08 09:34:45;;;;;;;14.70;8.52;;;;;;;2.39;81.80;99100.78;4901119;29;20088;-74
2020/12/08 09:37:10;;;;;;;11.05;8.15;;;;;;;3.31;81.75;99108.59;4893832;29;20391;-70
2020/12/08 09:39:36;;;;;;;7.53;6.93;;;;;;;4.04;79.36;99108.34;4905585;29;20039;-71
2020/12/08 09:42:03;;;;;;;11.15;9.02;;;;;;;4.54;77.02;99095.53;4906434;29;20024;-72
2020/12/08 09:44:28;;;;;;;8.07;7.43;;;;;;;5.26;76.68;99098.72;4893456;29;20531;-71
2020/12/08 09:46:56;;;;;;;6.40;5.85;;;;;;;6.32;75.80;99106.66;4893198;29;20029;-71
2020/12/08 09:49:22;;;;;;;5.47;4.93;;;;;;;7.47;73.16;99109.78;4900794;29;20158;-71
2020/12/08 09:51:52;;;;;;;4.75;4.35;;;;;;;8.62;70.21;99110.78;4897261;29;20024;-71
2020/12/08 09:54:17;;;;;;;7.00;5.10;;;;;;;9.66;67.44;99125.81;4913702;29;20024;-71
2020/12/08 09:56:47;;;;;;;5.00;4.70;;;;;;;9.82;65.33;99126.44;4916539;29;20453;-71
2020/12/08 09:59:13;;;;;;;5.63;5.22;;;;;;;9.46;64.89;99129.59;4911655;29;20386;-72
2020/12/08 10:01:41;;;;;;;5.18;4.78;;;;;;;9.20;65.57;99127.16;4917208;29;20522;-72
2020/12/08 10:04:07;;;;;;;6.30;5.70;;;;;;;9.52;65.22;99133.91;4895498;29;20021;-72
2020/12/08 10:06:33;;;;;;;6.85;6.18;;;;;;;9.40;63.23;99141.66;4917006;29;20127;-71
2020/12/08 10:08:58;;;;;;;6.30;5.90;;;;;;;8.76;62.37;99139.03;4894171;29;20055;-72
2020/12/08 10:11:24;;;;;;;6.13;4.80;;;;;;;8.18;63.03;99139.66;4893733;29;20032;-72
2020/12/08 10:13:51;;;;;;;6.22;5.82;;;;;;;7.68;63.21;99136.91;4904057;28;20088;-72
2020/12/08 10:16:22;;;;;;;4.63;4.32;;;;;;;7.33;65.19;99135.94;4906703;29;20511;-72
2020/12/08 10:18:51;;;;;;;20.83;5.88;;;;;;;6.89;64.95;99115.66;4911904;29;20033;-71
2020/12/08 10:21:24;;;;;;;6.38;5.78;;;;;;;6.68;64.96;99146.63;4911074;29;20020;-73
2020/12/08 10:23:50;;;;;;;7.28;6.60;;;;;;;6.34;65.82;99139.81;4916344;29;20032;-72
2020/12/08 10:26:16;;;;;;;9.05;7.78;;;;;;;6.06;65.88;99143.81;4913527;29;20024;-72
2020/12/08 10:28:42;;;;;;;7.15;6.53;;;;;;;5.66;66.62;99137.94;4909148;29;20128;-72
2020/12/08 10:31:07;;;;;;;7.90;7.03;;;;;;;5.36;67.19;99155.72;4910107;29;20531;-72
2020/12/08 10:33:33;;;;;;;8.13;7.40;;;;;;;5.03;68.30;99146.81;4904287;29;20048;-72
2020/12/08 10:36:00;;;;;;;8.77;7.88;;;;;;;4.77;69.63;99153.13;4884240;29;20487;-73
2020/12/08 10:38:25;;;;;;;10.57;8.00;;;;;;;4.63;71.29;99153.56;4893031;29;20032;-73
2020/12/08 10:40:51;;;;;;;8.20;7.18;;;;;;;4.57;71.23;99160.03;4913539;29;20131;-72
2020/12/08 10:43:17;;;;;;;8.57;7.65;;;;;;;4.57;71.87;99154.63;4906291;29;20483;-72
2020/12/08 10:45:43;;;;;;;15.57;7.57;;;;;;;4.61;72.32;99155.72;4909660;29;20078;-72
2020/12/08 10:48:08;;;;;;;11.02;7.45;;;;;;;4.60;72.45;99159.50;4886452;29;20032;-71
2020/12/08 10:50:34;;;;;;;7.53;6.75;;;;;;;4.64;72.13;99157.91;4897269;29;20131;-73
2020/12/08 10:52:59;;;;;;;11.38;7.32;;;;;;;4.67;72.80;99154.69;4897615;29;20421;-72
2020/12/08 10:55:25;;;;;;;14.38;7.85;;;;;;;4.63;72.32;99158.16;4910030;29;20041;-73
2020/12/08 10:57:51;;;;;;;8.80;7.05;;;;;;;4.49;73.51;99157.78;4881161;29;20097;-71
2020/12/08 11:00:17;;;;;;;12.23;8.00;;;;;;;4.44;73.46;99158.56;4900222;29;20397;-72
2020/12/08 11:02:45;;;;;;;15.30;7.70;;;;;;;4.50;73.74;99156.72;4889349;29;20024;-73
2020/12/08 11:05:11;;;;;;;10.93;7.55;;;;;;;4.49;73.86;99157.78;4891436;29;20033;-73
2020/12/08 11:07:36;;;;;;;9.02;7.32;;;;;;;4.54;73.89;99160.50;4874797;29;20184;-73
2020/12/08 11:10:03;;;;;;;9.15;6.97;;;;;;;4.48;74.13;99158.84;4905724;29;20032;-73
2020/12/08 11:12:28;;;;;;;8.32;7.35;;;;;;;4.51;75.11;99161.03;4908262;29;20121;-74
2020/12/08 11:14:54;;;;;;;10.20;7.78;;;;;;;4.67;74.49;99165.53;4912405;29;20044;-72
2020/12/08 11:17:19;;;;;;;7.82;7.22;;;;;;;4.79;74.34;99167.22;4911758;29;20028;-73
2020/12/08 11:19:45;;;;;;;7.03;6.47;;;;;;;4.90;74.50;99155.41;4882082;29;20028;-71
2020/12/08 11:22:10;;;;;;;9.48;7.65;;;;;;;5.00;74.33;99157.38;4896634;29;20484;-72
2020/12/08 11:24:37;;;;;;;9.77;7.55;;;;;;;5.01;73.67;99154.41;4910780;29;20028;-73
2020/12/08 11:27:03;;;;;;;6.95;6.45;;;;;;;5.09;73.60;99163.13;4906015;29;20025;-72
2020/12/08 11:29:31;;;;;;;5.72;5.05;;;;;;;5.15;73.78;99153.94;4910730;29;20410;-72
2020/12/08 11:31:56;;;;;;;11.23;5.93;;;;;;;5.30;74.26;99173.03;4901437;29;20028;-73
2020/12/08 11:34:22;;;;;;;7.40;6.70;;;;;;;5.32;74.10;99162.72;4912599;29;20038;-72
2020/12/08 11:36:54;;;;;;;10.43;6.55;;;;;;;5.45;73.80;99179.59;4888577;29;20047;-72
2020/12/08 11:39:22;;;;;;;9.23;6.40;;;;;;;5.45;73.96;99171.47;4894846;29;20475;-72
2020/12/08 11:41:48;;;;;;;6.43;5.88;;;;;;;5.54;73.46;99172.63;4905943;29;20075;-72
2020/12/08 11:44:13;;;;;;;8.43;6.43;;;;;;;5.64;73.34;99183.50;4886090;29;20036;-73
2020/12/08 11:46:39;;;;;;;8.25;6.13;;;;;;;5.66;73.44;99185.97;4873844;29;20542;-72
2020/12/08 11:49:05;;;;;;;6.55;6.03;;;;;;;5.66;73.38;99180.53;4900649;29;20039;-71
2020/12/08 11:51:32;;;;;;;7.72;6.68;;;;;;;5.67;73.52;99182.97;4895707;29;20090;-72
2020/12/08 11:53:58;;;;;;;7.50;6.88;;;;;;;5.70;73.50;99182.44;4914637;29;20043;-71
2020/12/08 11:56:25;;;;;;;7.70;6.93;;;;;;;5.74;74.05;99178.13;4915242;29;20037;-72